createdAt,value
2023-02-17T00:00:20.497Z,68.20
2023-02-17T00:01:53.711Z,68.20
2023-02-17T00:03:27.586Z,68.10
2023-02-17T00:05:00.810Z,68.20
2023-02-17T00:06:34.049Z,68.10
2023-02-17T00:08:07.258Z,68.10
2023-02-17T00:09:40.654Z,68.10
2023-02-17T00:11:14.735Z,68.20
2023-02-17T00:12:49.182Z,68.20
2023-02-17T00:14:22.430Z,68.10
2023-02-17T00:16:01.603Z,68.00
2023-02-17T00:17:37.804Z,68.00
2023-02-17T00:19:26.169Z,67.70
2023-02-17T00:21:14.326Z,68.00
2023-02-17T00:22:47.582Z,68.00
2023-02-17T00:24:20.976Z,67.90
2023-02-17T00:25:54.243Z,68.00
2023-02-17T00:27:27.369Z,68.00
2023-02-17T00:29:01.941Z,68.00
2023-02-17T00:30:34.227Z,67.90
2023-02-17T00:32:09.798Z,68.00
2023-02-17T00:33:43.414Z,68.00
2023-02-17T00:35:16.764Z,68.00
2023-02-17T00:36:50.144Z,68.00
2023-02-17T00:38:22.316Z,67.90
2023-02-17T00:39:55.457Z,67.80
2023-02-17T00:41:30.932Z,67.80
2023-02-17T00:43:04.057Z,67.90
2023-02-17T00:44:41.548Z,67.80
2023-02-17T00:46:15.847Z,67.90
2023-02-17T00:47:49.087Z,67.80
2023-02-17T00:49:26.282Z,67.60
2023-02-17T00:50:59.881Z,67.70
2023-02-17T00:52:33.106Z,67.70
2023-02-17T00:54:06.607Z,67.80
2023-02-17T00:55:39.791Z,67.70
2023-02-17T00:57:12.971Z,67.80
2023-02-17T00:58:47.160Z,67.80
2023-02-17T01:00:22.273Z,67.80
2023-02-17T01:01:55.668Z,67.80
2023-02-17T01:03:29.918Z,67.80
2023-02-17T01:05:03.080Z,67.90
2023-02-17T01:06:39.844Z,67.90
2023-02-17T01:08:14.207Z,68.00
2023-02-17T01:09:47.401Z,67.90
2023-02-17T01:11:27.115Z,67.90
2023-02-17T01:13:00.391Z,68.00
2023-02-17T01:14:33.494Z,68.10
2023-02-17T01:16:08.621Z,68.20
2023-02-17T01:17:42.219Z,68.30
2023-02-17T01:19:19.751Z,68.30
2023-02-17T01:20:54.442Z,68.40
2023-02-17T01:22:27.645Z,68.30
2023-02-17T01:24:03.318Z,68.40
2023-02-17T01:25:37.897Z,68.60
2023-02-17T01:27:11.357Z,69.00
2023-02-17T01:28:44.678Z,68.40
2023-02-17T01:30:18.186Z,68.60
2023-02-17T01:31:53.547Z,68.60
2023-02-17T01:33:26.835Z,68.70
2023-02-17T01:34:59.944Z,68.70
2023-02-17T01:36:33.234Z,68.80
2023-02-17T01:38:05.663Z,68.90
2023-02-17T01:39:39.015Z,68.90
2023-02-17T01:41:36.263Z,68.90
2023-02-17T01:43:22.414Z,70.00
2023-02-17T01:45:47.928Z,69.20
2023-02-17T01:47:23.061Z,69.50
2023-02-17T01:48:56.730Z,68.90
2023-02-17T01:50:37.046Z,68.90
2023-02-17T01:52:20.503Z,69.20
2023-02-17T01:54:03.069Z,69.10
2023-02-17T01:55:40.797Z,69.20
2023-02-17T01:57:17.867Z,69.20
2023-02-17T01:59:00.531Z,69.20
2023-02-17T02:00:36.431Z,69.20
2023-02-17T02:02:11.757Z,69.20
2023-02-17T02:03:49.608Z,69.20
2023-02-17T02:05:23.654Z,69.30
2023-02-17T02:06:59.852Z,70.20
2023-02-17T02:08:43.707Z,69.40
2023-02-17T02:10:19.355Z,69.50
2023-02-17T02:11:53.593Z,69.50
2023-02-17T02:13:27.143Z,69.50
2023-02-17T02:15:06.218Z,69.40
2023-02-17T02:16:51.168Z,69.70
2023-02-17T02:18:43.170Z,69.70
2023-02-17T02:20:49.568Z,69.70
2023-02-17T02:23:11.809Z,69.70
2023-02-17T02:25:21.239Z,69.80
2023-02-17T02:27:53.266Z,69.80
2023-02-17T02:30:34.232Z,69.70
2023-02-17T02:32:53.163Z,69.80
2023-02-17T02:34:39.230Z,69.70
2023-02-17T02:36:26.333Z,69.60
2023-02-17T02:38:15.182Z,69.50
2023-02-17T02:40:12.556Z,69.40
2023-02-17T02:41:56.510Z,69.50
2023-02-17T02:43:36.912Z,69.40
2023-02-17T02:45:13.190Z,69.30
2023-02-17T02:47:01.647Z,69.40
2023-02-17T02:48:37.703Z,69.70
2023-02-17T02:50:14.927Z,69.60
2023-02-17T02:51:55.946Z,69.50
2023-02-17T02:54:12.809Z,69.60
2023-02-17T02:55:57.196Z,70.00
2023-02-17T02:57:46.684Z,69.60
2023-02-17T02:59:34.950Z,69.60
2023-02-17T03:01:18.083Z,69.50
2023-02-17T03:02:56.980Z,69.50
2023-02-17T03:04:37.912Z,69.40
2023-02-17T03:06:23.165Z,69.40
2023-02-17T03:08:04.679Z,69.30
2023-02-17T03:09:38.634Z,69.30
2023-02-17T03:11:12.229Z,69.20
2023-02-17T03:12:45.603Z,69.10
2023-02-17T03:14:20.659Z,69.00
2023-02-17T03:15:54.368Z,69.00
2023-02-17T03:17:27.659Z,69.00
2023-02-17T03:19:01.254Z,69.00
2023-02-17T03:20:39.649Z,69.10
2023-02-17T03:22:19.972Z,69.10
2023-02-17T03:23:53.897Z,69.00
2023-02-17T03:25:27.223Z,68.90
2023-02-17T03:27:00.793Z,68.90
2023-02-17T03:28:34.131Z,68.90
2023-02-17T03:30:09.626Z,68.90
2023-02-17T03:31:43.219Z,68.90
2023-02-17T03:33:16.418Z,68.80
2023-02-17T03:34:49.624Z,68.70
2023-02-17T03:36:24.208Z,68.70
2023-02-17T03:37:57.532Z,68.70
2023-02-17T03:39:31.548Z,68.70
2023-02-17T03:41:05.259Z,68.60
2023-02-17T03:42:38.632Z,68.60
2023-02-17T03:44:11.971Z,68.50
2023-02-17T03:45:45.205Z,68.50
2023-02-17T03:47:17.445Z,68.30
2023-02-17T03:48:50.729Z,68.20
2023-02-17T03:50:23.920Z,68.20
2023-02-17T03:51:59.394Z,68.20
2023-02-17T03:53:32.649Z,68.30
2023-02-17T03:55:06.908Z,68.30
2023-02-17T03:56:40.210Z,68.30
2023-02-17T03:58:13.344Z,68.20
2023-02-17T03:59:46.507Z,68.10
2023-02-17T04:01:19.001Z,68.00
2023-02-17T04:02:52.246Z,68.00
2023-02-17T04:04:25.813Z,67.90
2023-02-17T04:05:58.960Z,67.90
2023-02-17T04:07:33.443Z,67.80
2023-02-17T04:09:05.581Z,67.80
2023-02-17T04:10:38.705Z,67.80
2023-02-17T04:12:11.928Z,67.70
2023-02-17T04:13:44.165Z,67.70
2023-02-17T04:15:17.608Z,67.70
2023-02-17T04:16:49.772Z,67.70
2023-02-17T04:18:24.020Z,67.70
2023-02-17T04:19:56.365Z,67.70
2023-02-17T04:21:29.531Z,67.60
2023-02-17T04:23:04.070Z,68.20
2023-02-17T04:24:37.971Z,67.70
2023-02-17T04:26:11.188Z,67.80
2023-02-17T04:27:43.438Z,67.60
2023-02-17T04:29:16.554Z,67.50
2023-02-17T04:30:52.280Z,67.50
2023-02-17T04:32:25.465Z,67.40
2023-02-17T04:33:58.669Z,67.40
2023-02-17T04:35:31.157Z,67.30
2023-02-17T04:37:04.400Z,67.50
2023-02-17T04:38:39.471Z,67.50
2023-02-17T04:40:13.904Z,67.50
2023-02-17T04:41:47.037Z,67.50
2023-02-17T04:43:19.188Z,67.40
2023-02-17T04:44:52.416Z,67.40
2023-02-17T04:46:25.665Z,67.30
2023-02-17T04:47:57.898Z,67.30
2023-02-17T04:49:31.324Z,67.40
2023-02-17T04:51:05.112Z,67.40
2023-02-17T04:52:38.283Z,67.30
2023-02-17T04:54:13.072Z,67.30
2023-02-17T04:55:49.817Z,67.30
2023-02-17T04:57:23.232Z,67.30
2023-02-17T04:58:56.380Z,67.10
2023-02-17T05:00:31.716Z,67.00
2023-02-17T05:02:05.038Z,67.00
2023-02-17T05:03:38.178Z,66.90
2023-02-17T05:05:10.671Z,66.90
2023-02-17T05:06:43.894Z,66.90
2023-02-17T05:08:17.026Z,66.90
2023-02-17T05:09:51.793Z,66.90
2023-02-17T05:11:24.963Z,66.80
2023-02-17T05:12:57.116Z,66.80
2023-02-17T05:14:31.292Z,66.80
2023-02-17T05:16:05.054Z,66.70
2023-02-17T05:17:39.248Z,66.70
2023-02-17T05:19:12.725Z,66.70
2023-02-17T05:20:45.861Z,66.60
2023-02-17T05:22:19.106Z,66.60
2023-02-17T05:23:52.415Z,66.50
2023-02-17T05:25:33.747Z,66.50
2023-02-17T05:27:10.252Z,66.50
2023-02-17T05:28:43.464Z,66.30
2023-02-17T05:30:17.032Z,66.40
2023-02-17T05:31:50.359Z,66.40
2023-02-17T05:33:23.613Z,66.40
2023-02-17T05:34:57.505Z,66.40
2023-02-17T05:36:30.749Z,66.40
2023-02-17T05:38:04.002Z,66.40
2023-02-17T05:39:37.346Z,66.30
2023-02-17T05:41:11.895Z,66.30
2023-02-17T05:42:45.986Z,66.30
2023-02-17T05:44:19.364Z,66.20
2023-02-17T05:45:55.300Z,66.20
2023-02-17T05:47:28.901Z,66.20
2023-02-17T05:49:02.099Z,66.20
2023-02-17T05:50:35.196Z,66.10
2023-02-17T05:52:09.167Z,66.00
2023-02-17T05:53:42.827Z,66.00
2023-02-17T05:55:16.277Z,66.10
2023-02-17T05:56:50.802Z,66.10
2023-02-17T05:58:24.523Z,66.10
2023-02-17T05:59:57.753Z,66.10
2023-02-17T06:01:30.956Z,66.10
2023-02-17T06:03:04.313Z,66.20
2023-02-17T06:04:37.800Z,66.20
2023-02-17T06:06:11.190Z,66.20
2023-02-17T06:07:44.414Z,66.20
2023-02-17T06:09:17.669Z,66.20
2023-02-17T06:10:50.891Z,66.20
2023-02-17T06:12:25.423Z,66.20
2023-02-17T06:13:58.605Z,66.10
2023-02-17T06:15:31.821Z,66.10
2023-02-17T06:17:04.980Z,66.10
2023-02-17T06:18:38.180Z,66.10
2023-02-17T06:20:12.428Z,66.20
2023-02-17T06:21:45.679Z,66.10
2023-02-17T06:23:18.912Z,66.20
2023-02-17T06:24:52.142Z,66.20
2023-02-17T06:26:25.595Z,66.20
2023-02-17T06:28:00.245Z,66.10
2023-02-17T06:29:33.977Z,66.20
2023-02-17T06:31:07.476Z,66.10
2023-02-17T06:32:40.648Z,66.10
2023-02-17T06:34:13.762Z,66.10
2023-02-17T06:35:51.070Z,66.10
2023-02-17T06:37:24.308Z,66.20
2023-02-17T06:38:57.430Z,66.10
2023-02-17T06:40:30.685Z,66.10
2023-02-17T06:42:04.171Z,66.10
2023-02-17T06:43:38.746Z,66.20
2023-02-17T06:45:12.112Z,66.20
2023-02-17T06:46:46.784Z,66.20
2023-02-17T06:48:19.945Z,66.20
2023-02-17T06:49:53.677Z,66.20
2023-02-17T06:51:26.823Z,66.20
2023-02-17T06:52:59.988Z,66.20
2023-02-17T06:54:33.161Z,66.20
2023-02-17T06:56:07.489Z,66.20
2023-02-17T06:57:40.780Z,66.20
2023-02-17T06:59:15.351Z,66.20
2023-02-17T07:00:48.644Z,66.20
2023-02-17T07:02:22.733Z,66.20
2023-02-17T07:03:57.784Z,66.30
2023-02-17T07:05:31.049Z,66.20
2023-02-17T07:07:04.302Z,66.20
2023-02-17T07:08:37.434Z,66.20
2023-02-17T07:10:11.773Z,66.20
2023-02-17T07:11:46.737Z,66.30
2023-02-17T07:13:19.928Z,66.30
2023-02-17T07:14:54.488Z,66.40
2023-02-17T07:16:27.704Z,66.40
2023-02-17T07:18:02.440Z,66.40
2023-02-17T07:19:35.599Z,66.40
2023-02-17T07:21:10.571Z,66.40
2023-02-17T07:22:43.729Z,66.50
2023-02-17T07:24:16.910Z,66.50
2023-02-17T07:25:50.080Z,66.50
2023-02-17T07:27:23.193Z,66.70
2023-02-17T07:28:56.555Z,66.70
2023-02-17T07:30:31.156Z,66.70
2023-02-17T07:32:04.762Z,67.00
2023-02-17T07:33:39.291Z,67.00
2023-02-17T07:35:12.421Z,67.10
2023-02-17T07:36:45.701Z,67.20
2023-02-17T07:38:18.987Z,67.20
2023-02-17T07:39:52.566Z,67.30
2023-02-17T07:41:28.581Z,67.50
2023-02-17T07:43:01.763Z,67.60
2023-02-17T07:44:35.122Z,67.70
2023-02-17T07:46:11.281Z,67.60
2023-02-17T07:47:44.503Z,67.70
2023-02-17T07:49:17.721Z,67.70
2023-02-17T07:50:50.965Z,67.80
2023-02-17T07:52:24.217Z,67.80
2023-02-17T07:53:57.401Z,68.60
2023-02-17T07:55:30.581Z,67.90
2023-02-17T07:57:03.899Z,68.00
2023-02-17T07:58:39.677Z,68.10
2023-02-17T08:00:14.541Z,68.10
2023-02-17T08:01:49.722Z,68.20
2023-02-17T08:03:22.896Z,68.10
2023-02-17T08:04:56.031Z,68.20
2023-02-17T08:06:29.395Z,68.30
2023-02-17T08:08:19.980Z,68.40
2023-02-17T08:10:10.983Z,68.50
2023-02-17T08:12:02.380Z,68.50
2023-02-17T08:13:35.524Z,68.60
2023-02-17T08:15:12.113Z,68.60
2023-02-17T08:16:45.390Z,68.70
2023-02-17T08:18:19.895Z,68.60
2023-02-17T08:19:53.086Z,68.70
2023-02-17T08:21:29.541Z,68.70
2023-02-17T08:23:03.525Z,68.70
2023-02-17T08:24:36.677Z,68.70
2023-02-17T08:26:09.831Z,68.70
2023-02-17T08:27:43.171Z,68.70
2023-02-17T08:29:16.678Z,68.90
2023-02-17T08:30:49.927Z,69.00
2023-02-17T08:32:23.375Z,69.00
2023-02-17T08:33:59.140Z,69.00
2023-02-17T08:35:32.776Z,69.20
2023-02-17T08:37:07.666Z,69.20
2023-02-17T08:38:42.169Z,69.30
2023-02-17T08:40:15.910Z,69.20
2023-02-17T08:41:49.705Z,69.20
2023-02-17T08:43:23.001Z,69.20
2023-02-17T08:44:56.137Z,69.20
2023-02-17T08:46:30.408Z,69.20
2023-02-17T08:48:04.067Z,69.20
2023-02-17T08:49:38.749Z,69.20
2023-02-17T08:51:14.879Z,69.30
2023-02-17T08:52:48.284Z,69.30
2023-02-17T08:54:21.368Z,69.20
2023-02-17T08:55:54.556Z,69.20
2023-02-17T08:57:28.175Z,69.20
2023-02-17T08:59:02.115Z,69.10
2023-02-17T09:00:35.738Z,69.10
2023-02-17T09:02:09.306Z,69.10
2023-02-17T09:03:42.741Z,69.00
2023-02-17T09:05:17.251Z,69.00
2023-02-17T09:06:53.144Z,69.20
2023-02-17T09:08:26.801Z,69.10
2023-02-17T09:10:00.012Z,69.10
2023-02-17T09:11:33.706Z,69.00
2023-02-17T09:13:07.400Z,69.00
2023-02-17T09:14:40.615Z,69.10
2023-02-17T09:16:15.016Z,69.00
2023-02-17T09:17:53.036Z,69.00
2023-02-17T09:19:27.766Z,69.10
2023-02-17T09:21:21.528Z,69.10
2023-02-17T09:22:56.792Z,69.30
2023-02-17T09:24:32.939Z,68.80
2023-02-17T09:26:09.966Z,68.90
2023-02-17T09:27:43.105Z,69.20
2023-02-17T09:29:16.290Z,69.10
2023-02-17T09:30:49.492Z,69.10
2023-02-17T09:32:22.926Z,69.20
2023-02-17T09:33:56.616Z,69.00
2023-02-17T09:35:30.026Z,69.00
2023-02-17T09:37:04.845Z,69.10
2023-02-17T09:38:39.361Z,69.10
2023-02-17T09:40:19.902Z,69.20
2023-02-17T09:41:55.322Z,69.00
2023-02-17T09:43:33.339Z,69.00
2023-02-17T09:45:15.389Z,68.90
2023-02-17T09:47:02.114Z,68.80
2023-02-17T09:48:37.676Z,68.80
2023-02-17T09:50:17.531Z,68.70
2023-02-17T09:52:02.382Z,68.70
2023-02-17T09:53:45.754Z,68.70
2023-02-17T09:55:26.211Z,68.80
2023-02-17T09:57:02.669Z,68.70
2023-02-17T09:58:42.431Z,68.50
2023-02-17T10:00:24.770Z,68.50
2023-02-17T10:02:00.624Z,68.50
2023-02-17T10:03:42.445Z,68.40
2023-02-17T10:05:25.112Z,68.30
2023-02-17T10:07:06.605Z,68.20
2023-02-17T10:08:51.656Z,68.20
2023-02-17T10:10:32.234Z,68.20
2023-02-17T10:12:09.548Z,68.10
2023-02-17T10:13:46.257Z,68.30
2023-02-17T10:15:26.060Z,68.10
2023-02-17T10:17:11.184Z,68.10
2023-02-17T10:18:58.126Z,67.90
2023-02-17T10:20:37.107Z,67.90
2023-02-17T10:22:18.459Z,67.80
2023-02-17T10:23:53.189Z,67.60
2023-02-17T10:25:58.088Z,67.60
2023-02-17T10:27:40.672Z,67.60
2023-02-17T10:29:25.962Z,67.60
2023-02-17T10:31:05.255Z,67.50
2023-02-17T10:32:55.425Z,67.40
2023-02-17T10:34:37.398Z,67.30
2023-02-17T10:36:24.879Z,67.30
2023-02-17T10:38:11.985Z,67.40
2023-02-17T10:39:50.451Z,67.40
2023-02-17T10:41:30.466Z,67.30
2023-02-17T10:43:07.861Z,67.10
2023-02-17T10:44:41.200Z,67.10
2023-02-17T10:46:18.268Z,66.90
2023-02-17T10:47:59.178Z,66.90
2023-02-17T10:49:38.017Z,66.80
2023-02-17T10:51:18.357Z,66.80
2023-02-17T10:52:52.769Z,66.80
2023-02-17T10:54:35.947Z,66.80
2023-02-17T10:56:15.656Z,66.70
2023-02-17T10:57:54.980Z,66.70
2023-02-17T10:59:33.433Z,66.70
2023-02-17T11:01:07.441Z,66.60
2023-02-17T11:02:45.214Z,66.60
2023-02-17T11:04:19.025Z,66.50
2023-02-17T11:05:58.791Z,66.50
2023-02-17T11:07:36.728Z,66.40
2023-02-17T11:09:23.246Z,66.30
2023-02-17T11:11:04.615Z,66.30
2023-02-17T11:12:43.371Z,66.20
2023-02-17T11:14:26.999Z,66.00
2023-02-17T11:16:03.218Z,66.00
2023-02-17T11:17:44.838Z,66.00
2023-02-17T11:19:26.420Z,65.70
2023-02-17T11:21:07.318Z,65.50
2023-02-17T11:22:45.661Z,65.50
2023-02-17T11:24:19.161Z,65.50
2023-02-17T11:26:11.113Z,65.50
2023-02-17T11:27:52.763Z,65.30
2023-02-17T11:29:27.189Z,65.40
2023-02-17T11:31:04.667Z,65.40
2023-02-17T11:32:37.934Z,65.10
2023-02-17T11:34:21.100Z,65.10
2023-02-17T11:35:57.157Z,65.20
2023-02-17T11:37:32.292Z,65.20
2023-02-17T11:39:19.896Z,65.00
2023-02-17T11:40:56.795Z,64.50
2023-02-17T11:42:34.076Z,64.30
2023-02-17T11:44:12.434Z,64.20
2023-02-17T11:46:00.739Z,63.90
2023-02-17T11:47:46.084Z,63.70
2023-02-17T11:49:43.435Z,63.60
2023-02-17T11:51:26.616Z,63.50
2023-02-17T11:53:20.886Z,63.50
2023-02-17T11:55:19.243Z,63.20
2023-02-17T11:57:18.450Z,63.60
2023-02-17T11:59:13.689Z,63.60
2023-02-17T12:01:05.740Z,63.20
2023-02-17T12:03:03.658Z,63.00
2023-02-17T12:04:49.776Z,62.90
2023-02-17T12:06:39.763Z,62.90
2023-02-17T12:08:31.479Z,62.70
2023-02-17T12:10:17.594Z,62.70
2023-02-17T12:11:59.338Z,62.40
2023-02-17T12:13:47.920Z,62.30
2023-02-17T12:15:39.144Z,61.70
2023-02-17T12:17:24.903Z,61.90
2023-02-17T12:19:13.604Z,61.90
2023-02-17T12:20:57.076Z,62.00
2023-02-17T12:22:45.552Z,62.00
2023-02-17T12:24:41.123Z,61.80
2023-02-17T12:26:29.824Z,61.70
2023-02-17T12:28:32.824Z,61.60
2023-02-17T12:30:32.396Z,61.50
2023-02-17T12:32:27.600Z,61.40
2023-02-17T12:34:08.378Z,61.30
2023-02-17T12:35:52.684Z,61.20
2023-02-17T12:37:33.020Z,61.90
2023-02-17T12:39:17.254Z,60.90
2023-02-17T12:40:59.278Z,60.50
2023-02-17T12:42:38.004Z,60.60
2023-02-17T12:44:19.595Z,60.50
2023-02-17T12:45:59.106Z,60.50
2023-02-17T12:47:42.555Z,60.50
2023-02-17T12:49:23.290Z,60.50
2023-02-17T12:51:07.957Z,60.60
2023-02-17T12:52:47.345Z,60.60
2023-02-17T12:54:32.963Z,60.60
2023-02-17T12:57:03.817Z,60.60
2023-02-17T12:58:38.404Z,60.50
2023-02-17T13:00:21.168Z,60.60
2023-02-17T13:02:02.445Z,60.50
2023-02-17T13:03:37.611Z,60.50
2023-02-17T13:05:28.617Z,60.80
2023-02-17T13:07:41.759Z,60.90
2023-02-17T13:09:28.460Z,60.70
2023-02-17T13:11:04.924Z,60.60
2023-02-17T13:12:42.748Z,60.70
2023-02-17T13:14:28.227Z,60.90
2023-02-17T13:16:11.138Z,60.90
2023-02-17T13:17:57.127Z,60.90
2023-02-17T13:19:33.275Z,60.90
2023-02-17T13:21:20.390Z,61.00
2023-02-17T13:23:10.110Z,61.00
2023-02-17T13:24:54.338Z,61.20
2023-02-17T13:26:32.411Z,61.10
2023-02-17T13:28:35.148Z,61.10
2023-02-17T13:30:29.793Z,61.00
2023-02-17T13:32:06.921Z,61.20
2023-02-17T13:33:52.333Z,61.30
2023-02-17T13:35:35.881Z,61.30
2023-02-17T13:37:42.725Z,61.30
2023-02-17T13:39:42.944Z,61.30
2023-02-17T13:41:16.117Z,61.50
2023-02-17T13:42:51.691Z,61.50
2023-02-17T13:44:33.738Z,61.60
2023-02-17T13:46:08.345Z,61.50
2023-02-17T13:47:42.761Z,61.50
2023-02-17T13:49:26.290Z,61.60
2023-02-17T13:51:01.334Z,61.60
2023-02-17T13:52:34.992Z,61.70
2023-02-17T13:54:10.539Z,61.60
2023-02-17T13:55:45.784Z,61.60
2023-02-17T13:57:31.226Z,62.60
2023-02-17T13:59:10.309Z,61.60
2023-02-17T14:00:48.583Z,61.60
2023-02-17T14:02:36.139Z,61.50
2023-02-17T14:04:36.748Z,61.60
2023-02-17T14:06:23.196Z,61.40
2023-02-17T14:08:16.868Z,61.50
2023-02-17T14:09:56.146Z,61.40
2023-02-17T14:11:33.102Z,61.40
2023-02-17T14:13:11.373Z,61.50
2023-02-17T14:14:45.087Z,61.50
2023-02-17T14:16:34.317Z,61.40
2023-02-17T14:18:15.602Z,61.30
2023-02-17T14:20:01.478Z,61.30
2023-02-17T14:21:42.194Z,61.30
2023-02-17T14:23:16.172Z,61.30
2023-02-17T14:25:01.919Z,61.30
2023-02-17T14:26:43.234Z,61.40
2023-02-17T14:28:21.525Z,61.50
2023-02-17T14:30:06.021Z,61.40
2023-02-17T14:31:41.192Z,61.50
2023-02-17T14:33:23.221Z,61.50
2023-02-17T14:35:23.328Z,61.50
2023-02-17T14:37:08.734Z,61.60
2023-02-17T14:38:43.690Z,61.70
2023-02-17T14:40:19.606Z,61.90
2023-02-17T14:41:52.788Z,62.00
2023-02-17T14:43:26.313Z,62.10
2023-02-17T14:44:59.538Z,62.30
2023-02-17T14:46:32.956Z,62.50
2023-02-17T14:48:06.773Z,62.60
2023-02-17T14:49:39.902Z,62.80
2023-02-17T14:51:17.231Z,62.80
2023-02-17T14:52:52.274Z,62.90
2023-02-17T14:54:27.111Z,63.00
2023-02-17T14:56:09.386Z,63.00
2023-02-17T14:57:42.614Z,63.00
2023-02-17T14:59:16.021Z,63.00
2023-02-17T15:00:51.700Z,62.90
2023-02-17T15:02:30.164Z,62.90
2023-02-17T15:04:06.486Z,63.00
2023-02-17T15:05:45.329Z,63.10
2023-02-17T15:07:20.979Z,63.20
2023-02-17T15:09:01.269Z,63.60
2023-02-17T15:10:37.382Z,63.60
2023-02-17T15:12:21.229Z,63.60
2023-02-17T15:13:57.258Z,63.50
2023-02-17T15:15:34.683Z,64.30
2023-02-17T15:17:08.469Z,63.80
2023-02-17T15:18:46.635Z,64.00
2023-02-17T15:20:20.348Z,64.30
2023-02-17T15:21:57.531Z,64.20
2023-02-17T15:23:35.801Z,64.40
2023-02-17T15:25:25.330Z,64.40
2023-02-17T15:27:10.479Z,64.20
2023-02-17T15:28:50.726Z,64.20
2023-02-17T15:30:28.679Z,64.20
2023-02-17T15:32:17.933Z,63.80
2023-02-17T15:34:05.081Z,64.00
2023-02-17T15:35:43.318Z,64.20
2023-02-17T15:37:23.808Z,64.10
2023-02-17T15:39:05.966Z,63.90
2023-02-17T15:40:39.392Z,64.00
2023-02-17T15:42:15.264Z,64.40
2023-02-17T15:43:50.208Z,64.70
2023-02-17T15:45:27.109Z,64.80
2023-02-17T15:47:02.241Z,64.80
2023-02-17T15:48:35.365Z,64.90
2023-02-17T15:50:20.499Z,65.00
2023-02-17T15:51:54.052Z,65.30
2023-02-17T15:53:38.132Z,65.20
2023-02-17T15:55:13.022Z,65.20
2023-02-17T15:56:50.659Z,65.10
2023-02-17T15:58:26.755Z,65.10
2023-02-17T16:00:00.107Z,64.80
2023-02-17T16:01:55.938Z,64.80
2023-02-17T16:03:29.268Z,64.90
2023-02-17T16:05:02.627Z,64.90
2023-02-17T16:23:40.876Z,64.90
2023-02-17T16:25:17.836Z,64.80
2023-02-17T16:26:51.025Z,64.70
2023-02-17T16:28:24.427Z,64.60
2023-02-17T16:29:57.544Z,64.70
2023-02-17T16:31:35.696Z,64.70
2023-02-17T16:33:11.772Z,64.70
2023-02-17T16:34:45.248Z,64.60
2023-02-17T16:36:27.698Z,64.50
2023-02-17T16:38:16.336Z,64.60
2023-02-17T16:39:55.729Z,64.60
2023-02-17T16:41:39.128Z,64.60
2023-02-17T16:43:22.918Z,64.70
2023-02-17T16:45:05.808Z,64.80
2023-02-17T16:46:47.321Z,64.70
2023-02-17T16:48:28.659Z,64.80
2023-02-17T16:50:02.733Z,65.00
2023-02-17T16:51:35.892Z,65.00
2023-02-17T16:53:09.573Z,65.00
2023-02-17T16:54:42.693Z,65.00
2023-02-17T16:56:20.347Z,64.80
2023-02-17T16:57:54.871Z,64.90
2023-02-17T16:59:28.193Z,64.80
2023-02-17T17:01:01.440Z,65.70
2023-02-17T17:02:34.579Z,64.90
2023-02-17T17:04:08.554Z,64.80
2023-02-17T17:05:42.817Z,64.90
2023-02-17T17:07:16.317Z,65.80
2023-02-17T17:08:49.907Z,65.10
2023-02-17T17:10:26.869Z,65.10
2023-02-17T17:12:00.009Z,65.10
2023-02-17T17:13:34.597Z,65.10
2023-02-17T17:15:09.273Z,65.10
2023-02-17T17:16:47.437Z,65.20
2023-02-17T17:18:24.025Z,65.00
2023-02-17T17:19:57.114Z,65.00
2023-02-17T17:21:31.099Z,65.00
2023-02-17T17:23:09.163Z,65.20
2023-02-17T17:24:42.350Z,65.20
2023-02-17T17:26:25.433Z,65.20
2023-02-17T17:28:00.003Z,65.40
2023-02-17T17:29:34.448Z,65.30
2023-02-17T17:31:10.464Z,65.40
2023-02-17T17:32:43.628Z,65.30
2023-02-17T17:34:19.075Z,66.00
2023-02-17T17:35:58.528Z,65.40
2023-02-17T17:37:45.471Z,65.50
2023-02-17T17:39:31.602Z,65.50
2023-02-17T17:41:12.868Z,65.40
2023-02-17T17:42:46.603Z,65.40
2023-02-17T17:46:38.628Z,65.60
2023-02-17T17:48:15.020Z,65.50
2023-02-17T17:49:48.173Z,65.50
2023-02-17T17:51:23.748Z,65.40
2023-02-17T17:52:56.838Z,65.30
2023-02-17T17:54:29.983Z,65.20
2023-02-17T17:56:03.351Z,65.30
2023-02-17T17:57:36.697Z,65.40
2023-02-17T17:59:11.636Z,65.40
2023-02-17T18:00:44.806Z,65.50
2023-02-17T18:02:19.211Z,65.60
2023-02-17T18:03:52.750Z,65.60
2023-02-17T18:05:26.123Z,65.50
2023-02-17T18:06:59.578Z,65.40
2023-02-17T18:08:32.724Z,65.50
2023-02-17T18:10:09.585Z,65.50
2023-02-17T18:11:44.534Z,65.60
2023-02-17T18:13:18.120Z,65.60
2023-02-17T18:14:57.053Z,65.50
2023-02-17T18:16:31.853Z,65.30
2023-02-17T18:18:07.456Z,65.10
2023-02-17T18:19:41.706Z,65.10
2023-02-17T18:21:15.052Z,65.10
2023-02-17T18:22:48.165Z,65.00
2023-02-17T18:24:21.288Z,65.00
2023-02-17T18:25:54.701Z,64.90
2023-02-17T18:27:28.318Z,65.00
2023-02-17T18:29:02.216Z,65.10
2023-02-17T18:30:35.492Z,65.10
2023-02-17T18:32:08.847Z,65.00
2023-02-17T18:35:28.477Z,64.90
2023-02-17T18:37:01.558Z,64.70
2023-02-17T18:38:34.637Z,64.80
2023-02-17T18:40:12.482Z,64.80
2023-02-17T18:41:45.751Z,64.90
2023-02-17T18:43:18.968Z,64.90
2023-02-17T18:44:53.432Z,64.90
2023-02-17T18:46:27.441Z,64.80
2023-02-17T18:48:00.842Z,65.00
2023-02-17T18:49:34.426Z,65.90
2023-02-17T18:51:11.244Z,65.20
2023-02-17T18:52:45.624Z,65.10
2023-02-17T18:54:19.039Z,65.00
2023-02-17T18:55:52.448Z,64.80
2023-02-17T18:57:25.526Z,64.90
2023-02-17T18:58:59.197Z,65.00
2023-02-17T19:00:32.442Z,65.10
2023-02-17T19:02:06.453Z,65.10
2023-02-17T19:03:39.804Z,65.20
2023-02-17T19:05:15.128Z,65.30
2023-02-17T19:06:50.135Z,65.30
2023-02-17T19:08:23.836Z,65.20
2023-02-17T19:09:56.850Z,65.00
2023-02-17T19:11:30.033Z,65.00
2023-02-17T19:13:03.084Z,65.00
2023-02-17T19:14:36.477Z,65.10
2023-02-17T19:16:12.351Z,65.10
2023-02-17T19:17:45.586Z,65.20
2023-02-17T19:19:18.744Z,65.10
2023-02-17T19:20:54.799Z,65.00
2023-02-17T19:22:29.337Z,65.10
2023-02-17T19:24:02.397Z,64.90
2023-02-17T19:25:38.551Z,64.70
2023-02-17T19:27:13.168Z,64.90
2023-02-17T19:28:47.375Z,65.00
2023-02-17T19:30:20.950Z,65.00
2023-02-17T19:31:54.279Z,65.00
2023-02-17T19:33:27.898Z,65.00
2023-02-17T19:35:01.002Z,64.90
2023-02-17T19:36:34.141Z,64.90
2023-02-17T19:38:08.609Z,64.80
2023-02-17T19:39:41.717Z,64.90
2023-02-17T19:41:16.653Z,64.80
2023-02-17T19:42:49.769Z,64.80
2023-02-17T19:44:22.920Z,64.70
2023-02-17T19:45:56.074Z,64.60
2023-02-17T19:47:30.741Z,64.60
2023-02-17T19:49:04.661Z,64.50
2023-02-17T19:50:38.994Z,64.50
2023-02-17T19:52:12.360Z,64.50
2023-02-17T19:53:46.868Z,64.50
2023-02-17T19:55:21.223Z,64.40
2023-02-17T19:56:54.323Z,64.40
2023-02-17T19:58:27.800Z,64.40
2023-02-17T20:00:00.868Z,64.40
2023-02-17T20:01:35.766Z,64.40
2023-02-17T20:03:08.943Z,64.40
2023-02-17T20:04:42.444Z,64.50
2023-02-17T20:06:18.685Z,64.50
2023-02-17T20:07:51.946Z,64.40
2023-02-17T20:09:26.586Z,64.30
2023-02-17T20:10:59.763Z,64.30
2023-02-17T20:12:32.844Z,64.20
2023-02-17T20:14:06.125Z,64.20
2023-02-17T20:15:39.272Z,64.10
2023-02-17T20:17:12.565Z,64.20
2023-02-17T20:18:49.120Z,64.20
2023-02-17T20:20:22.407Z,64.20
2023-02-17T20:21:55.896Z,64.50
2023-02-17T20:23:29.077Z,64.20
2023-02-17T20:25:04.249Z,64.10
2023-02-17T20:26:42.448Z,64.20
2023-02-17T20:28:15.624Z,64.30
2023-02-17T20:29:48.805Z,64.20
2023-02-17T20:31:22.535Z,64.20
2023-02-17T20:32:55.772Z,64.20
2023-02-17T20:34:33.943Z,64.20
2023-02-17T20:36:09.858Z,64.20
2023-02-17T20:37:43.228Z,64.00
2023-02-17T20:39:16.345Z,64.00
2023-02-17T20:40:51.163Z,64.00
2023-02-17T20:42:24.274Z,63.90
2023-02-17T20:44:00.812Z,63.70
2023-02-17T20:45:33.921Z,64.00
2023-02-17T20:47:07.532Z,64.00
2023-02-17T20:48:40.675Z,64.10
2023-02-17T20:50:15.477Z,64.30
2023-02-17T20:51:48.770Z,64.20
2023-02-17T20:53:22.129Z,64.40
2023-02-17T20:54:55.220Z,64.20
2023-02-17T20:56:36.504Z,64.10
2023-02-17T20:58:12.160Z,64.30
2023-02-17T20:59:45.745Z,64.20
2023-02-17T21:01:20.124Z,64.30
2023-02-17T21:02:53.560Z,64.40
2023-02-17T21:04:26.656Z,64.30
2023-02-17T21:05:59.807Z,64.50
2023-02-17T21:07:33.182Z,64.50
2023-02-17T21:09:10.142Z,64.50
2023-02-17T21:10:43.987Z,64.60
2023-02-17T21:12:19.276Z,64.50
2023-02-17T21:13:53.024Z,64.70
2023-02-17T21:15:27.251Z,64.70
2023-02-17T21:17:00.680Z,64.70